sensor_id;sensor_type;location;lat;lon;timestamp;temperature;humidity
18252;DHT22;26917;52.328;20.878;2023-03-31T00:00:13;9.20;99.90
18252;DHT22;26917;52.328;20.878;2023-03-31T00:02:42;9.20;99.90
18252;DHT22;26917;52.328;20.878;2023-03-31T00:05:12;9.20;99.90
18252;DHT22;26917;52.328;20.878;2023-03-31T00:07:44;9.20;99.90
18252;DHT22;26917;52.328;20.878;2023-03-31T00:10:14;9.20;99.90
18252;DHT22;26917;52.328;20.878;2023-03-31T00:12:45;9.20;99.90
18252;DHT22;26917;52.328;20.878;2023-03-31T00:15:15;9.20;99.90
18252;DHT22;26917;52.328;20.878;2023-03-31T00:17:43;9.20;99.90
18252;DHT22;26917;52.328;20.878;2023-03-31T00:20:13;9.20;99.90
18252;DHT22;26917;52.328;20.878;2023-03-31T00:22:41;9.20;99.90
18252;DHT22;26917;52.328;20.878;2023-03-31T00:25:13;9.20;99.90
18252;DHT22;26917;52.328;20.878;2023-03-31T00:27:42;9.20;99.90
18252;DHT22;26917;52.328;20.878;2023-03-31T00:30:12;9.20;99.90
18252;DHT22;26917;52.328;20.878;2023-03-31T00:32:42;9.20;99.90
18252;DHT22;26917;52.328;20.878;2023-03-31T00:35:10;9.20;99.90
18252;DHT22;26917;52.328;20.878;2023-03-31T00:37:38;9.20;99.90
18252;DHT22;26917;52.328;20.878;2023-03-31T00:40:10;9.20;99.90
18252;DHT22;26917;52.328;20.878;2023-03-31T00:42:39;9.20;99.90
18252;DHT22;26917;52.328;20.878;2023-03-31T00:45:22;9.20;99.90
18252;DHT22;26917;52.328;20.878;2023-03-31T00:48:00;9.10;99.90
18252;DHT22;26917;52.328;20.878;2023-03-31T00:50:33;9.10;99.90
18252;DHT22;26917;52.328;20.878;2023-03-31T00:53:05;9.10;99.90
18252;DHT22;26917;52.328;20.878;2023-03-31T00:55:40;9.10;99.90
18252;DHT22;26917;52.328;20.878;2023-03-31T00:58:12;9.10;99.90
18252;DHT22;26917;52.328;20.878;2023-03-31T01:03:33;9.10;99.90
18252;DHT22;26917;52.328;20.878;2023-03-31T01:06:06;9.10;99.90
18252;DHT22;26917;52.328;20.878;2023-03-31T01:08:39;9.10;99.90
18252;DHT22;26917;52.328;20.878;2023-03-31T01:11:11;9.20;99.90
18252;DHT22;26917;52.328;20.878;2023-03-31T01:13:56;9.10;99.90
18252;DHT22;26917;52.328;20.878;2023-03-31T01:16:52;9.20;99.90
18252;DHT22;26917;52.328;20.878;2023-03-31T01:19:39;9.20;99.90
18252;DHT22;26917;52.328;20.878;2023-03-31T01:33:13;9.20;99.90
18252;DHT22;26917;52.328;20.878;2023-03-31T01:40:16;9.20;99.90
18252;DHT22;26917;52.328;20.878;2023-03-31T01:43:40;9.20;99.90
18252;DHT22;26917;52.328;20.878;2023-03-31T01:46:42;9.20;99.90
18252;DHT22;26917;52.328;20.878;2023-03-31T01:50:09;9.30;99.90
18252;DHT22;26917;52.328;20.878;2023-03-31T01:53:02;9.20;99.90
18252;DHT22;26917;52.328;20.878;2023-03-31T02:00:24;9.50;99.90
18252;DHT22;26917;52.328;20.878;2023-03-31T02:03:21;9.10;99.90
18252;DHT22;26917;52.328;20.878;2023-03-31T02:06:20;9.10;99.90
18252;DHT22;26917;52.328;20.878;2023-03-31T02:09:43;9.10;99.90
18252;DHT22;26917;52.328;20.878;2023-03-31T02:13:05;9.10;99.90
18252;DHT22;26917;52.328;20.878;2023-03-31T02:16:11;9.10;99.90
18252;DHT22;26917;52.328;20.878;2023-03-31T02:18:48;9.10;99.90
18252;DHT22;26917;52.328;20.878;2023-03-31T02:22:13;9.10;99.90
18252;DHT22;26917;52.328;20.878;2023-03-31T02:24:59;8.90;99.90
18252;DHT22;26917;52.328;20.878;2023-03-31T02:27:40;9.10;99.90
18252;DHT22;26917;52.328;20.878;2023-03-31T02:30:13;9.10;99.90
18252;DHT22;26917;52.328;20.878;2023-03-31T02:33:09;9.00;99.90
18252;DHT22;26917;52.328;20.878;2023-03-31T02:37:15;9.00;99.90
18252;DHT22;26917;52.328;20.878;2023-03-31T02:44:11;8.90;99.90
18252;DHT22;26917;52.328;20.878;2023-03-31T02:47:08;8.80;99.90
18252;DHT22;26917;52.328;20.878;2023-03-31T02:49:47;8.80;99.90
18252;DHT22;26917;52.328;20.878;2023-03-31T02:52:51;8.70;99.90
18252;DHT22;26917;52.328;20.878;2023-03-31T02:56:56;8.70;99.90
18252;DHT22;26917;52.328;20.878;2023-03-31T03:01:03;8.70;99.90
18252;DHT22;26917;52.328;20.878;2023-03-31T03:03:40;8.70;99.90
18252;DHT22;26917;52.328;20.878;2023-03-31T03:13:20;9.60;99.90
18252;DHT22;26917;52.328;20.878;2023-03-31T03:16:18;8.80;99.90
18252;DHT22;26917;52.328;20.878;2023-03-31T03:19:37;8.90;99.90
18252;DHT22;26917;52.328;20.878;2023-03-31T03:26:45;8.90;99.90
18252;DHT22;26917;52.328;20.878;2023-03-31T03:30:39;8.80;99.90
18252;DHT22;26917;52.328;20.878;2023-03-31T03:33:39;8.80;99.90
18252;DHT22;26917;52.328;20.878;2023-03-31T03:40:40;8.70;99.90
18252;DHT22;26917;52.328;20.878;2023-03-31T03:46:52;8.60;99.90
18252;DHT22;26917;52.328;20.878;2023-03-31T03:49:42;8.60;99.90
18252;DHT22;26917;52.328;20.878;2023-03-31T03:52:41;8.60;99.90
18252;DHT22;26917;52.328;20.878;2023-03-31T03:55:49;8.60;99.90
18252;DHT22;26917;52.328;20.878;2023-03-31T03:59:17;8.50;99.90
18252;DHT22;26917;52.328;20.878;2023-03-31T04:05:29;8.40;99.90
18252;DHT22;26917;52.328;20.878;2023-03-31T04:08:48;8.40;99.90
18252;DHT22;26917;52.328;20.878;2023-03-31T04:11:22;8.30;99.90
18252;DHT22;26917;52.328;20.878;2023-03-31T04:15:35;8.20;99.90
18252;DHT22;26917;52.328;20.878;2023-03-31T04:29:06;8.00;99.90
18252;DHT22;26917;52.328;20.878;2023-03-31T04:30:27;8.00;99.90
18252;DHT22;26917;52.328;20.878;2023-03-31T04:46:35;7.60;99.90
18252;DHT22;26917;52.328;20.878;2023-03-31T04:54:03;7.60;99.90
18252;DHT22;26917;52.328;20.878;2023-03-31T04:57:45;7.60;99.90
18252;DHT22;26917;52.328;20.878;2023-03-31T05:01:22;7.70;99.90
18252;DHT22;26917;52.328;20.878;2023-03-31T05:13:20;8.00;99.90
18252;DHT22;26917;52.328;20.878;2023-03-31T05:19:15;8.20;99.90
18252;DHT22;26917;52.328;20.878;2023-03-31T05:25:03;8.20;99.90
18252;DHT22;26917;52.328;20.878;2023-03-31T05:28:03;8.40;99.90
18252;DHT22;26917;52.328;20.878;2023-03-31T05:30:58;8.40;99.90
18252;DHT22;26917;52.328;20.878;2023-03-31T05:37:36;8.60;99.90
18252;DHT22;26917;52.328;20.878;2023-03-31T05:45:51;8.60;99.90
18252;DHT22;26917;52.328;20.878;2023-03-31T05:49:15;8.80;99.90
18252;DHT22;26917;52.328;20.878;2023-03-31T05:52:36;8.70;99.90
18252;DHT22;26917;52.328;20.878;2023-03-31T05:59:37;8.70;99.90
18252;DHT22;26917;52.328;20.878;2023-03-31T06:03:07;8.60;99.90
18252;DHT22;26917;52.328;20.878;2023-03-31T06:05:54;8.80;99.90
18252;DHT22;26917;52.328;20.878;2023-03-31T06:09:18;9.10;99.90
18252;DHT22;26917;52.328;20.878;2023-03-31T06:15:59;8.90;99.90
18252;DHT22;26917;52.328;20.878;2023-03-31T06:18:29;9.00;99.90
18252;DHT22;26917;52.328;20.878;2023-03-31T06:21:08;9.10;99.90
18252;DHT22;26917;52.328;20.878;2023-03-31T06:24:05;9.20;99.90
18252;DHT22;26917;52.328;20.878;2023-03-31T06:27:09;9.40;99.90
18252;DHT22;26917;52.328;20.878;2023-03-31T06:29:56;9.40;99.90
18252;DHT22;26917;52.328;20.878;2023-03-31T06:32:39;9.50;99.90
18252;DHT22;26917;52.328;20.878;2023-03-31T06:35:17;9.60;99.90
18252;DHT22;26917;52.328;20.878;2023-03-31T06:38:04;9.50;99.90
18252;DHT22;26917;52.328;20.878;2023-03-31T06:40:48;9.50;99.90
18252;DHT22;26917;52.328;20.878;2023-03-31T06:43:27;9.50;99.90
18252;DHT22;26917;52.328;20.878;2023-03-31T06:46:02;9.50;99.90
18252;DHT22;26917;52.328;20.878;2023-03-31T06:48:35;9.60;99.90
18252;DHT22;26917;52.328;20.878;2023-03-31T06:51:38;9.60;99.90
18252;DHT22;26917;52.328;20.878;2023-03-31T06:54:25;9.50;99.90
18252;DHT22;26917;52.328;20.878;2023-03-31T06:57:30;9.80;99.90
18252;DHT22;26917;52.328;20.878;2023-03-31T07:00:12;9.90;99.90
18252;DHT22;26917;52.328;20.878;2023-03-31T07:02:50;10.10;99.90
18252;DHT22;26917;52.328;20.878;2023-03-31T07:09:00;10.30;99.90
18252;DHT22;26917;52.328;20.878;2023-03-31T07:11:31;10.40;99.90
18252;DHT22;26917;52.328;20.878;2023-03-31T07:14:24;10.40;99.90
18252;DHT22;26917;52.328;20.878;2023-03-31T07:16:58;10.00;99.90
18252;DHT22;26917;52.328;20.878;2023-03-31T07:19:27;10.50;99.90
18252;DHT22;26917;52.328;20.878;2023-03-31T07:22:00;10.50;99.90
18252;DHT22;26917;52.328;20.878;2023-03-31T07:24:41;10.60;99.90
18252;DHT22;26917;52.328;20.878;2023-03-31T07:27:14;10.70;99.90
18252;DHT22;26917;52.328;20.878;2023-03-31T07:30:23;10.90;99.90
18252;DHT22;26917;52.328;20.878;2023-03-31T07:33:07;11.00;99.90
18252;DHT22;26917;52.328;20.878;2023-03-31T07:35:54;11.00;99.90
18252;DHT22;26917;52.328;20.878;2023-03-31T07:38:53;10.90;99.90
18252;DHT22;26917;52.328;20.878;2023-03-31T07:41:53;11.00;99.90
18252;DHT22;26917;52.328;20.878;2023-03-31T07:44:43;11.40;99.90
18252;DHT22;26917;52.328;20.878;2023-03-31T07:47:25;11.10;99.90
18252;DHT22;26917;52.328;20.878;2023-03-31T07:50:05;11.20;99.90
18252;DHT22;26917;52.328;20.878;2023-03-31T07:52:33;11.20;99.90
18252;DHT22;26917;52.328;20.878;2023-03-31T07:55:05;11.30;99.90
18252;DHT22;26917;52.328;20.878;2023-03-31T08:00:40;11.50;99.90
18252;DHT22;26917;52.328;20.878;2023-03-31T08:03:15;11.50;99.90
18252;DHT22;26917;52.328;20.878;2023-03-31T08:05:43;11.60;99.90
18252;DHT22;26917;52.328;20.878;2023-03-31T08:08:12;11.60;99.90
18252;DHT22;26917;52.328;20.878;2023-03-31T08:10:52;11.70;99.90
18252;DHT22;26917;52.328;20.878;2023-03-31T08:13:20;11.80;99.90
18252;DHT22;26917;52.328;20.878;2023-03-31T08:15:53;11.70;99.90
18252;DHT22;26917;52.328;20.878;2023-03-31T08:18:22;11.60;99.90
18252;DHT22;26917;52.328;20.878;2023-03-31T08:21:21;11.70;99.90
18252;DHT22;26917;52.328;20.878;2023-03-31T08:23:57;11.80;99.90
18252;DHT22;26917;52.328;20.878;2023-03-31T08:26:37;11.70;99.90
18252;DHT22;26917;52.328;20.878;2023-03-31T08:29:10;11.70;99.90
18252;DHT22;26917;52.328;20.878;2023-03-31T08:31:53;11.50;99.90
18252;DHT22;26917;52.328;20.878;2023-03-31T08:34:22;11.70;99.90
18252;DHT22;26917;52.328;20.878;2023-03-31T08:37:08;11.40;99.90
18252;DHT22;26917;52.328;20.878;2023-03-31T08:39:46;11.50;99.90
18252;DHT22;26917;52.328;20.878;2023-03-31T08:42:16;11.60;99.90
18252;DHT22;26917;52.328;20.878;2023-03-31T08:44:58;11.80;99.90
18252;DHT22;26917;52.328;20.878;2023-03-31T08:47:36;11.80;99.90
18252;DHT22;26917;52.328;20.878;2023-03-31T08:50:16;11.80;99.90
18252;DHT22;26917;52.328;20.878;2023-03-31T08:52:49;11.80;99.90
18252;DHT22;26917;52.328;20.878;2023-03-31T08:55:36;11.90;99.90
18252;DHT22;26917;52.328;20.878;2023-03-31T08:58:17;12.00;99.90
18252;DHT22;26917;52.328;20.878;2023-03-31T09:00:52;12.00;99.90
18252;DHT22;26917;52.328;20.878;2023-03-31T09:03:41;12.20;99.90
18252;DHT22;26917;52.328;20.878;2023-03-31T09:06:15;12.30;99.90
18252;DHT22;26917;52.328;20.878;2023-03-31T09:08:46;12.40;99.90
18252;DHT22;26917;52.328;20.878;2023-03-31T09:14:33;12.70;99.90
18252;DHT22;26917;52.328;20.878;2023-03-31T09:17:15;12.90;99.90
18252;DHT22;26917;52.328;20.878;2023-03-31T09:20:06;13.10;99.90
18252;DHT22;26917;52.328;20.878;2023-03-31T09:22:42;13.30;99.90
18252;DHT22;26917;52.328;20.878;2023-03-31T09:25:14;13.30;99.90
18252;DHT22;26917;52.328;20.878;2023-03-31T09:27:44;13.20;99.90
18252;DHT22;26917;52.328;20.878;2023-03-31T09:30:20;13.00;99.90
18252;DHT22;26917;52.328;20.878;2023-03-31T09:33:02;12.90;99.90
18252;DHT22;26917;52.328;20.878;2023-03-31T09:35:58;13.00;99.90
18252;DHT22;26917;52.328;20.878;2023-03-31T09:38:41;13.20;99.90
18252;DHT22;26917;52.328;20.878;2023-03-31T09:41:21;13.40;99.90
18252;DHT22;26917;52.328;20.878;2023-03-31T09:43:49;13.60;99.90
18252;DHT22;26917;52.328;20.878;2023-03-31T09:46:43;13.50;99.90
18252;DHT22;26917;52.328;20.878;2023-03-31T09:49:13;13.50;99.90
18252;DHT22;26917;52.328;20.878;2023-03-31T09:51:51;13.70;99.90
18252;DHT22;26917;52.328;20.878;2023-03-31T09:54:38;13.80;99.90
18252;DHT22;26917;52.328;20.878;2023-03-31T09:57:14;13.90;99.90
18252;DHT22;26917;52.328;20.878;2023-03-31T09:59:49;14.20;99.90
18252;DHT22;26917;52.328;20.878;2023-03-31T10:02:36;14.40;99.90
18252;DHT22;26917;52.328;20.878;2023-03-31T10:09:08;14.30;99.90
18252;DHT22;26917;52.328;20.878;2023-03-31T10:12:13;14.10;99.90
18252;DHT22;26917;52.328;20.878;2023-03-31T10:14:48;14.10;99.90
18252;DHT22;26917;52.328;20.878;2023-03-31T10:17:43;14.10;99.90
18252;DHT22;26917;52.328;20.878;2023-03-31T10:20:29;14.20;99.90
18252;DHT22;26917;52.328;20.878;2023-03-31T10:23:03;14.40;99.90
18252;DHT22;26917;52.328;20.878;2023-03-31T10:26:10;14.60;99.90
18252;DHT22;26917;52.328;20.878;2023-03-31T10:29:03;14.70;99.90
18252;DHT22;26917;52.328;20.878;2023-03-31T10:34:58;14.80;99.90
18252;DHT22;26917;52.328;20.878;2023-03-31T10:37:34;14.80;99.90
18252;DHT22;26917;52.328;20.878;2023-03-31T10:40:32;14.90;99.90
18252;DHT22;26917;52.328;20.878;2023-03-31T10:43:27;14.80;99.90
18252;DHT22;26917;52.328;20.878;2023-03-31T10:46:16;14.70;99.90
18252;DHT22;26917;52.328;20.878;2023-03-31T10:48:56;14.60;99.90
18252;DHT22;26917;52.328;20.878;2023-03-31T10:51:30;14.60;99.90
18252;DHT22;26917;52.328;20.878;2023-03-31T10:54:01;14.80;99.90
18252;DHT22;26917;52.328;20.878;2023-03-31T10:56:51;15.00;99.90
18252;DHT22;26917;52.328;20.878;2023-03-31T10:59:47;15.00;99.90
18252;DHT22;26917;52.328;20.878;2023-03-31T11:03:15;14.70;99.90
18252;DHT22;26917;52.328;20.878;2023-03-31T11:06:10;15.50;99.90
18252;DHT22;26917;52.328;20.878;2023-03-31T11:08:53;15.40;99.30
18252;DHT22;26917;52.328;20.878;2023-03-31T11:11:46;15.50;99.30
18252;DHT22;26917;52.328;20.878;2023-03-31T11:14:34;15.50;99.50
18252;DHT22;26917;52.328;20.878;2023-03-31T11:17:37;15.40;99.10
18252;DHT22;26917;52.328;20.878;2023-03-31T11:20:24;15.60;99.70
18252;DHT22;26917;52.328;20.878;2023-03-31T11:23:44;15.30;99.50
18252;DHT22;26917;52.328;20.878;2023-03-31T11:26:42;15.40;99.30
18252;DHT22;26917;52.328;20.878;2023-03-31T11:29:26;15.70;99.60
18252;DHT22;26917;52.328;20.878;2023-03-31T11:32:41;15.80;98.70
18252;DHT22;26917;52.328;20.878;2023-03-31T11:35:40;15.80;98.00
18252;DHT22;26917;52.328;20.878;2023-03-31T11:38:35;15.80;98.50
18252;DHT22;26917;52.328;20.878;2023-03-31T11:41:14;15.80;98.30
18252;DHT22;26917;52.328;20.878;2023-03-31T11:44:03;15.80;98.30
18252;DHT22;26917;52.328;20.878;2023-03-31T11:46:38;15.70;98.30
18252;DHT22;26917;52.328;20.878;2023-03-31T11:49:16;15.70;98.80
18252;DHT22;26917;52.328;20.878;2023-03-31T11:52:13;15.80;97.70
18252;DHT22;26917;52.328;20.878;2023-03-31T11:54:54;15.80;97.60
18252;DHT22;26917;52.328;20.878;2023-03-31T11:57:35;15.80;97.70
18252;DHT22;26917;52.328;20.878;2023-03-31T12:03:03;15.70;97.60
18252;DHT22;26917;52.328;20.878;2023-03-31T12:05:45;15.70;97.60
18252;DHT22;26917;52.328;20.878;2023-03-31T12:08:28;15.70;97.00
18252;DHT22;26917;52.328;20.878;2023-03-31T12:11:08;15.70;97.30
18252;DHT22;26917;52.328;20.878;2023-03-31T12:13:54;15.50;96.50
18252;DHT22;26917;52.328;20.878;2023-03-31T12:16:34;15.60;97.20
18252;DHT22;26917;52.328;20.878;2023-03-31T12:19:12;15.80;97.60
18252;DHT22;26917;52.328;20.878;2023-03-31T12:22:15;16.00;96.60
18252;DHT22;26917;52.328;20.878;2023-03-31T12:24:50;16.10;96.50
18252;DHT22;26917;52.328;20.878;2023-03-31T12:27:37;16.10;96.40
18252;DHT22;26917;52.328;20.878;2023-03-31T12:30:16;16.30;96.50
18252;DHT22;26917;52.328;20.878;2023-03-31T12:32:52;16.20;95.60
18252;DHT22;26917;52.328;20.878;2023-03-31T12:35:25;16.20;95.90
18252;DHT22;26917;52.328;20.878;2023-03-31T12:38:36;16.20;95.30
18252;DHT22;26917;52.328;20.878;2023-03-31T12:41:28;16.40;95.00
18252;DHT22;26917;52.328;20.878;2023-03-31T12:44:44;16.50;95.20
18252;DHT22;26917;52.328;20.878;2023-03-31T12:48:09;16.60;94.90
18252;DHT22;26917;52.328;20.878;2023-03-31T12:51:09;16.50;94.20
18252;DHT22;26917;52.328;20.878;2023-03-31T12:54:09;16.10;93.80
18252;DHT22;26917;52.328;20.878;2023-03-31T12:57:13;16.30;94.30
18252;DHT22;26917;52.328;20.878;2023-03-31T13:09:47;16.10;93.60
18252;DHT22;26917;52.328;20.878;2023-03-31T13:12:32;16.30;94.10
18252;DHT22;26917;52.328;20.878;2023-03-31T13:15:23;16.20;93.40
18252;DHT22;26917;52.328;20.878;2023-03-31T13:17:57;16.30;94.30
18252;DHT22;26917;52.328;20.878;2023-03-31T13:20:56;16.40;93.40
18252;DHT22;26917;52.328;20.878;2023-03-31T13:23:33;16.40;93.30
18252;DHT22;26917;52.328;20.878;2023-03-31T13:26:38;16.30;93.70
18252;DHT22;26917;52.328;20.878;2023-03-31T13:29:22;16.30;94.10
18252;DHT22;26917;52.328;20.878;2023-03-31T13:32:27;16.40;94.10
18252;DHT22;26917;52.328;20.878;2023-03-31T13:35:24;16.20;93.70
18252;DHT22;26917;52.328;20.878;2023-03-31T13:38:24;16.00;93.70
18252;DHT22;26917;52.328;20.878;2023-03-31T13:41:36;15.80;94.30
18252;DHT22;26917;52.328;20.878;2023-03-31T13:49:06;15.60;94.50
18252;DHT22;26917;52.328;20.878;2023-03-31T13:51:53;15.70;95.00
18252;DHT22;26917;52.328;20.878;2023-03-31T14:05:04;15.60;95.60
18252;DHT22;26917;52.328;20.878;2023-03-31T14:07:54;15.30;94.80
18252;DHT22;26917;52.328;20.878;2023-03-31T14:10:28;15.20;95.20
18252;DHT22;26917;52.328;20.878;2023-03-31T14:13:15;15.20;95.30
18252;DHT22;26917;52.328;20.878;2023-03-31T14:15:57;15.20;95.40
18252;DHT22;26917;52.328;20.878;2023-03-31T14:19:26;15.50;95.00
18252;DHT22;26917;52.328;20.878;2023-03-31T14:22:09;15.90;94.60
18252;DHT22;26917;52.328;20.878;2023-03-31T14:25:06;16.00;93.10
18252;DHT22;26917;52.328;20.878;2023-03-31T14:28:00;16.00;93.50
18252;DHT22;26917;52.328;20.878;2023-03-31T14:38:10;15.90;93.40
18252;DHT22;26917;52.328;20.878;2023-03-31T14:40:47;15.80;93.80
18252;DHT22;26917;52.328;20.878;2023-03-31T14:43:18;15.80;94.10
18252;DHT22;26917;52.328;20.878;2023-03-31T14:46:00;15.80;93.80
18252;DHT22;26917;52.328;20.878;2023-03-31T14:48:34;15.70;93.40
18252;DHT22;26917;52.328;20.878;2023-03-31T14:51:22;15.70;93.30
18252;DHT22;26917;52.328;20.878;2023-03-31T14:53:56;15.80;93.20
18252;DHT22;26917;52.328;20.878;2023-03-31T14:56:32;15.70;93.20
18252;DHT22;26917;52.328;20.878;2023-03-31T14:59:23;15.60;93.20
18252;DHT22;26917;52.328;20.878;2023-03-31T15:01:57;15.60;92.80
18252;DHT22;26917;52.328;20.878;2023-03-31T15:04:41;15.60;93.20
18252;DHT22;26917;52.328;20.878;2023-03-31T15:10:11;15.70;93.40
18252;DHT22;26917;52.328;20.878;2023-03-31T15:11:26;15.70;93.70
18252;DHT22;26917;52.328;20.878;2023-03-31T15:13:56;15.70;93.20
18252;DHT22;26917;52.328;20.878;2023-03-31T15:16:52;15.60;93.40
18252;DHT22;26917;52.328;20.878;2023-03-31T15:19:37;15.60;93.50
18252;DHT22;26917;52.328;20.878;2023-03-31T15:22:21;15.50;93.80
18252;DHT22;26917;52.328;20.878;2023-03-31T15:24:56;15.50;93.80
18252;DHT22;26917;52.328;20.878;2023-03-31T15:28:02;15.40;93.90
18252;DHT22;26917;52.328;20.878;2023-03-31T15:30:43;15.80;94.40
18252;DHT22;26917;52.328;20.878;2023-03-31T15:33:30;15.70;94.00
18252;DHT22;26917;52.328;20.878;2023-03-31T15:36:33;15.80;94.10
18252;DHT22;26917;52.328;20.878;2023-03-31T15:39:34;15.70;94.10
18252;DHT22;26917;52.328;20.878;2023-03-31T15:42:30;15.60;94.20
18252;DHT22;26917;52.328;20.878;2023-03-31T15:45:44;15.60;94.30
18252;DHT22;26917;52.328;20.878;2023-03-31T15:48:35;15.20;94.70
18252;DHT22;26917;52.328;20.878;2023-03-31T15:51:17;14.90;95.10
18252;DHT22;26917;52.328;20.878;2023-03-31T15:54:09;14.70;95.60
18252;DHT22;26917;52.328;20.878;2023-03-31T15:57:59;14.40;95.90
18252;DHT22;26917;52.328;20.878;2023-03-31T16:01:13;14.20;96.80
18252;DHT22;26917;52.328;20.878;2023-03-31T16:03:44;14.00;97.00
18252;DHT22;26917;52.328;20.878;2023-03-31T16:06:21;13.80;97.20
18252;DHT22;26917;52.328;20.878;2023-03-31T16:08:52;13.70;97.40
18252;DHT22;26917;52.328;20.878;2023-03-31T16:11:44;13.60;97.60
18252;DHT22;26917;52.328;20.878;2023-03-31T16:14:16;13.40;98.10
18252;DHT22;26917;52.328;20.878;2023-03-31T16:16:53;13.30;98.30
18252;DHT22;26917;52.328;20.878;2023-03-31T16:19:24;13.20;98.40
18252;DHT22;26917;52.328;20.878;2023-03-31T16:21:57;13.00;98.50
18252;DHT22;26917;52.328;20.878;2023-03-31T16:24:33;12.90;98.60
18252;DHT22;26917;52.328;20.878;2023-03-31T16:27:03;12.80;98.80
18252;DHT22;26917;52.328;20.878;2023-03-31T16:29:37;12.70;98.90
18252;DHT22;26917;52.328;20.878;2023-03-31T16:32:12;12.70;99.20
18252;DHT22;26917;52.328;20.878;2023-03-31T16:34:52;12.60;99.50
18252;DHT22;26917;52.328;20.878;2023-03-31T16:37:26;12.50;99.70
18252;DHT22;26917;52.328;20.878;2023-03-31T16:40:00;12.20;99.50
18252;DHT22;26917;52.328;20.878;2023-03-31T16:42:38;12.40;99.80
18252;DHT22;26917;52.328;20.878;2023-03-31T16:45:17;12.30;99.80
18252;DHT22;26917;52.328;20.878;2023-03-31T16:47:49;12.30;99.90
18252;DHT22;26917;52.328;20.878;2023-03-31T16:50:20;12.20;99.90
18252;DHT22;26917;52.328;20.878;2023-03-31T16:52:49;12.20;99.90
18252;DHT22;26917;52.328;20.878;2023-03-31T16:55:18;12.10;99.90
18252;DHT22;26917;52.328;20.878;2023-03-31T16:57:49;12.00;99.90
18252;DHT22;26917;52.328;20.878;2023-03-31T17:00:19;12.00;99.90
18252;DHT22;26917;52.328;20.878;2023-03-31T17:02:49;11.90;99.90
18252;DHT22;26917;52.328;20.878;2023-03-31T17:05:18;11.80;99.90
18252;DHT22;26917;52.328;20.878;2023-03-31T17:07:50;11.80;99.90
18252;DHT22;26917;52.328;20.878;2023-03-31T17:10:18;11.80;99.90
18252;DHT22;26917;52.328;20.878;2023-03-31T17:12:47;11.80;99.90
18252;DHT22;26917;52.328;20.878;2023-03-31T17:15:16;11.70;99.90
18252;DHT22;26917;52.328;20.878;2023-03-31T17:17:44;11.70;99.90
18252;DHT22;26917;52.328;20.878;2023-03-31T17:20:18;11.60;99.90
18252;DHT22;26917;52.328;20.878;2023-03-31T17:22:46;11.60;99.90
18252;DHT22;26917;52.328;20.878;2023-03-31T17:25:15;11.60;99.90
18252;DHT22;26917;52.328;20.878;2023-03-31T17:27:44;11.50;99.90
18252;DHT22;26917;52.328;20.878;2023-03-31T17:30:13;11.50;99.90
18252;DHT22;26917;52.328;20.878;2023-03-31T17:32:51;11.40;99.90
18252;DHT22;26917;52.328;20.878;2023-03-31T17:35:29;11.40;99.90
18252;DHT22;26917;52.328;20.878;2023-03-31T17:38:08;11.30;99.90
18252;DHT22;26917;52.328;20.878;2023-03-31T17:40:48;11.30;99.90
18252;DHT22;26917;52.328;20.878;2023-03-31T17:43:18;11.30;99.90
18252;DHT22;26917;52.328;20.878;2023-03-31T17:45:50;11.20;99.90
18252;DHT22;26917;52.328;20.878;2023-03-31T17:48:19;11.00;99.90
18252;DHT22;26917;52.328;20.878;2023-03-31T17:50:51;10.80;99.90
18252;DHT22;26917;52.328;20.878;2023-03-31T17:53:22;10.70;99.90
18252;DHT22;26917;52.328;20.878;2023-03-31T17:55:51;10.60;99.90
18252;DHT22;26917;52.328;20.878;2023-03-31T17:58:19;10.50;99.90
18252;DHT22;26917;52.328;20.878;2023-03-31T18:01:07;10.40;99.90
18252;DHT22;26917;52.328;20.878;2023-03-31T18:03:40;10.40;99.90
18252;DHT22;26917;52.328;20.878;2023-03-31T18:06:27;10.40;99.90
18252;DHT22;26917;52.328;20.878;2023-03-31T18:09:09;10.40;99.90
18252;DHT22;26917;52.328;20.878;2023-03-31T18:11:37;10.30;99.90
18252;DHT22;26917;52.328;20.878;2023-03-31T18:14:07;10.30;99.90
18252;DHT22;26917;52.328;20.878;2023-03-31T18:16:36;10.20;99.90
18252;DHT22;26917;52.328;20.878;2023-03-31T18:19:04;10.20;99.90
18252;DHT22;26917;52.328;20.878;2023-03-31T18:21:34;10.10;99.90
18252;DHT22;26917;52.328;20.878;2023-03-31T18:24:03;10.10;99.90
18252;DHT22;26917;52.328;20.878;2023-03-31T18:26:32;10.10;99.90
18252;DHT22;26917;52.328;20.878;2023-03-31T18:29:00;10.00;99.90
18252;DHT22;26917;52.328;20.878;2023-03-31T18:31:32;10.00;99.90
18252;DHT22;26917;52.328;20.878;2023-03-31T18:34:04;9.90;99.90
18252;DHT22;26917;52.328;20.878;2023-03-31T18:36:34;9.90;99.90
18252;DHT22;26917;52.328;20.878;2023-03-31T18:39:09;9.90;99.90
18252;DHT22;26917;52.328;20.878;2023-03-31T18:41:41;9.90;99.90
18252;DHT22;26917;52.328;20.878;2023-03-31T18:44:17;9.90;99.90
18252;DHT22;26917;52.328;20.878;2023-03-31T18:47:04;9.90;99.90
18252;DHT22;26917;52.328;20.878;2023-03-31T18:49:46;9.90;99.90
18252;DHT22;26917;52.328;20.878;2023-03-31T19:05:14;9.80;99.90
18252;DHT22;26917;52.328;20.878;2023-03-31T19:09:53;9.80;99.90
18252;DHT22;26917;52.328;20.878;2023-03-31T19:17:28;9.80;99.90
18252;DHT22;26917;52.328;20.878;2023-03-31T19:20:20;9.70;99.90
18252;DHT22;26917;52.328;20.878;2023-03-31T19:23:00;9.60;99.90
18252;DHT22;26917;52.328;20.878;2023-03-31T19:25:35;9.60;99.90
18252;DHT22;26917;52.328;20.878;2023-03-31T19:28:21;9.60;99.90
18252;DHT22;26917;52.328;20.878;2023-03-31T19:30:52;9.60;99.90
18252;DHT22;26917;52.328;20.878;2023-03-31T19:33:24;9.60;99.90
18252;DHT22;26917;52.328;20.878;2023-03-31T19:35:55;9.60;99.90
18252;DHT22;26917;52.328;20.878;2023-03-31T19:38:25;9.60;99.90
18252;DHT22;26917;52.328;20.878;2023-03-31T19:41:14;9.60;99.90
18252;DHT22;26917;52.328;20.878;2023-03-31T19:43:47;9.60;99.90
18252;DHT22;26917;52.328;20.878;2023-03-31T19:46:16;9.60;99.90
18252;DHT22;26917;52.328;20.878;2023-03-31T19:48:44;9.60;99.90
18252;DHT22;26917;52.328;20.878;2023-03-31T19:51:16;9.60;99.90
18252;DHT22;26917;52.328;20.878;2023-03-31T19:53:45;9.60;99.90
18252;DHT22;26917;52.328;20.878;2023-03-31T19:56:16;9.60;99.90
18252;DHT22;26917;52.328;20.878;2023-03-31T19:58:45;9.60;99.90
18252;DHT22;26917;52.328;20.878;2023-03-31T20:01:16;9.60;99.90
18252;DHT22;26917;52.328;20.878;2023-03-31T20:03:45;9.60;99.90
18252;DHT22;26917;52.328;20.878;2023-03-31T20:06:20;9.60;99.90
18252;DHT22;26917;52.328;20.878;2023-03-31T20:08:51;9.60;99.90
18252;DHT22;26917;52.328;20.878;2023-03-31T20:11:29;9.60;99.90
18252;DHT22;26917;52.328;20.878;2023-03-31T20:14:02;9.60;99.90